Lake McDonald, Montana
Current Conditions -  °F | °C
As of 4:27 PM on Friday 19 Dec 2014 (Local Time) from KGPI Reporting Station
Light Rain Light Rain  
Wind Chill: 28°   Ceiling: 1600
Heat Index: 35°   Visibility: 6mi
Dew Point: 34°   Wind: 9mph
Humidity: 96%   Direction: 170°S
Pressure: 29.88"   Gusts: NA
Location:  48.62°N, 113.87°W
Report Text: KGPI 192327Z 17008KT 6SM -RA BR SCT007 BKN016 OVC032 02/01 A2988 RMK AO2 P0001 T00170011 $
Loading
Personal Weather Stations






























Interactive Weather Map New forecast layout! Learn more

10-Day Weather Forecast

Advertisements
Track Severe Weather on mobile